sensor_id;sensor_type;location;lat;lon;timestamp;P1;durP1;ratioP1;P2;durP2;ratioP2
31764;SDS011;18338;53.240;8.798;2022-11-15T00:01:15;62.08;;;35.28;;
31764;SDS011;18338;53.240;8.798;2022-11-15T00:03:44;64.82;;;34.63;;
31764;SDS011;18338;53.240;8.798;2022-11-15T00:06:12;63.47;;;35.20;;
31764;SDS011;18338;53.240;8.798;2022-11-15T00:08:39;58.67;;;32.92;;
31764;SDS011;18338;53.240;8.798;2022-11-15T00:11:07;63.10;;;33.37;;
31764;SDS011;18338;53.240;8.798;2022-11-15T00:13:36;60.72;;;32.60;;
31764;SDS011;18338;53.240;8.798;2022-11-15T00:16:03;60.10;;;32.65;;
31764;SDS011;18338;53.240;8.798;2022-11-15T00:18:33;61.50;;;31.88;;
31764;SDS011;18338;53.240;8.798;2022-11-15T00:21:04;59.83;;;32.20;;
31764;SDS011;18338;53.240;8.798;2022-11-15T00:23:35;63.20;;;33.78;;
31764;SDS011;18338;53.240;8.798;2022-11-15T00:26:03;65.40;;;33.03;;
31764;SDS011;18338;53.240;8.798;2022-11-15T00:28:30;63.85;;;35.10;;
31764;SDS011;18338;53.240;8.798;2022-11-15T00:31:01;60.43;;;34.47;;
31764;SDS011;18338;53.240;8.798;2022-11-15T00:33:29;58.55;;;31.63;;
31764;SDS011;18338;53.240;8.798;2022-11-15T00:36:04;63.27;;;31.00;;
31764;SDS011;18338;53.240;8.798;2022-11-15T00:38:36;57.43;;;30.50;;
31764;SDS011;18338;53.240;8.798;2022-11-15T00:41:08;56.97;;;30.73;;
31764;SDS011;18338;53.240;8.798;2022-11-15T00:43:35;52.78;;;29.02;;
31764;SDS011;18338;53.240;8.798;2022-11-15T00:46:03;56.45;;;30.52;;
31764;SDS011;18338;53.240;8.798;2022-11-15T00:48:30;55.55;;;29.50;;
31764;SDS011;18338;53.240;8.798;2022-11-15T00:50:59;60.97;;;31.17;;
31764;SDS011;18338;53.240;8.798;2022-11-15T00:53:27;54.70;;;28.93;;
31764;SDS011;18338;53.240;8.798;2022-11-15T00:55:55;54.60;;;29.37;;
31764;SDS011;18338;53.240;8.798;2022-11-15T00:58:22;57.30;;;29.00;;
31764;SDS011;18338;53.240;8.798;2022-11-15T01:00:50;56.88;;;28.38;;
31764;SDS011;18338;53.240;8.798;2022-11-15T01:03:21;52.97;;;29.20;;
31764;SDS011;18338;53.240;8.798;2022-11-15T01:05:48;55.57;;;28.30;;
31764;SDS011;18338;53.240;8.798;2022-11-15T01:08:16;53.00;;;29.03;;
31764;SDS011;18338;53.240;8.798;2022-11-15T01:10:43;57.25;;;29.60;;
31764;SDS011;18338;53.240;8.798;2022-11-15T01:13:10;59.80;;;31.00;;
31764;SDS011;18338;53.240;8.798;2022-11-15T01:15:40;58.70;;;29.87;;
31764;SDS011;18338;53.240;8.798;2022-11-15T01:18:07;63.03;;;30.10;;
31764;SDS011;18338;53.240;8.798;2022-11-15T01:20:41;59.35;;;29.63;;
31764;SDS011;18338;53.240;8.798;2022-11-15T01:23:09;57.25;;;30.35;;
31764;SDS011;18338;53.240;8.798;2022-11-15T01:25:36;52.63;;;28.73;;
31764;SDS011;18338;53.240;8.798;2022-11-15T01:28:02;57.77;;;30.03;;
31764;SDS011;18338;53.240;8.798;2022-11-15T01:30:29;57.13;;;30.80;;
31764;SDS011;18338;53.240;8.798;2022-11-15T01:32:56;57.67;;;29.80;;
31764;SDS011;18338;53.240;8.798;2022-11-15T01:35:22;59.83;;;29.43;;
31764;SDS011;18338;53.240;8.798;2022-11-15T01:37:49;56.70;;;29.00;;
31764;SDS011;18338;53.240;8.798;2022-11-15T01:40:16;55.90;;;29.43;;
31764;SDS011;18338;53.240;8.798;2022-11-15T01:42:43;56.27;;;28.27;;
31764;SDS011;18338;53.240;8.798;2022-11-15T01:45:16;57.37;;;29.60;;
31764;SDS011;18338;53.240;8.798;2022-11-15T01:47:44;60.60;;;28.77;;
31764;SDS011;18338;53.240;8.798;2022-11-15T01:50:15;56.47;;;27.93;;
31764;SDS011;18338;53.240;8.798;2022-11-15T01:52:48;57.27;;;28.37;;
31764;SDS011;18338;53.240;8.798;2022-11-15T01:55:22;56.90;;;27.83;;
31764;SDS011;18338;53.240;8.798;2022-11-15T01:57:54;52.73;;;27.23;;
31764;SDS011;18338;53.240;8.798;2022-11-15T02:00:25;55.57;;;27.70;;
31764;SDS011;18338;53.240;8.798;2022-11-15T02:02:53;52.60;;;27.37;;
31764;SDS011;18338;53.240;8.798;2022-11-15T02:05:19;57.43;;;27.10;;
31764;SDS011;18338;53.240;8.798;2022-11-15T02:07:46;51.63;;;25.80;;
31764;SDS011;18338;53.240;8.798;2022-11-15T02:10:17;53.63;;;26.17;;
31764;SDS011;18338;53.240;8.798;2022-11-15T02:12:46;53.03;;;26.53;;
31764;SDS011;18338;53.240;8.798;2022-11-15T02:15:13;54.03;;;27.13;;
31764;SDS011;18338;53.240;8.798;2022-11-15T02:20:38;55.73;;;27.37;;
31764;SDS011;18338;53.240;8.798;2022-11-15T02:29:17;53.67;;;26.23;;
31764;SDS011;18338;53.240;8.798;2022-11-15T02:32:00;57.00;;;26.73;;
31764;SDS011;18338;53.240;8.798;2022-11-15T02:40:21;56.47;;;29.70;;
31764;SDS011;18338;53.240;8.798;2022-11-15T02:43:05;54.17;;;30.13;;
31764;SDS011;18338;53.240;8.798;2022-11-15T02:46:03;54.70;;;29.50;;
31764;SDS011;18338;53.240;8.798;2022-11-15T02:48:37;54.42;;;29.67;;
31764;SDS011;18338;53.240;8.798;2022-11-15T02:51:05;53.58;;;28.67;;
31764;SDS011;18338;53.240;8.798;2022-11-15T02:53:32;56.72;;;28.77;;
31764;SDS011;18338;53.240;8.798;2022-11-15T02:55:59;56.10;;;28.73;;
31764;SDS011;18338;53.240;8.798;2022-11-15T03:01:01;49.47;;;27.48;;
31764;SDS011;18338;53.240;8.798;2022-11-15T03:06:25;51.83;;;27.77;;
31764;SDS011;18338;53.240;8.798;2022-11-15T03:09:26;47.08;;;25.65;;
31764;SDS011;18338;53.240;8.798;2022-11-15T03:12:07;49.45;;;26.00;;
31764;SDS011;18338;53.240;8.798;2022-11-15T03:14:57;48.47;;;27.02;;
31764;SDS011;18338;53.240;8.798;2022-11-15T03:19:58;52.13;;;26.65;;
31764;SDS011;18338;53.240;8.798;2022-11-15T03:22:27;47.03;;;27.45;;
31764;SDS011;18338;53.240;8.798;2022-11-15T03:24:57;47.72;;;25.48;;
31764;SDS011;18338;53.240;8.798;2022-11-15T03:27:31;44.55;;;26.83;;
31764;SDS011;18338;53.240;8.798;2022-11-15T03:30:04;47.17;;;25.17;;
31764;SDS011;18338;53.240;8.798;2022-11-15T03:32:41;47.83;;;25.30;;
31764;SDS011;18338;53.240;8.798;2022-11-15T03:35:14;43.45;;;25.92;;
31764;SDS011;18338;53.240;8.798;2022-11-15T03:45:49;44.55;;;25.10;;
31764;SDS011;18338;53.240;8.798;2022-11-15T03:48:26;42.53;;;24.67;;
31764;SDS011;18338;53.240;8.798;2022-11-15T03:50:56;42.03;;;24.42;;
31764;SDS011;18338;53.240;8.798;2022-11-15T03:53:23;43.33;;;25.30;;
31764;SDS011;18338;53.240;8.798;2022-11-15T03:55:50;42.03;;;24.27;;
31764;SDS011;18338;53.240;8.798;2022-11-15T03:58:17;43.75;;;25.58;;
31764;SDS011;18338;53.240;8.798;2022-11-15T04:00:44;40.25;;;23.23;;
31764;SDS011;18338;53.240;8.798;2022-11-15T04:03:13;38.20;;;23.90;;
31764;SDS011;18338;53.240;8.798;2022-11-15T04:05:40;38.33;;;24.02;;
31764;SDS011;18338;53.240;8.798;2022-11-15T04:08:07;39.10;;;23.35;;
31764;SDS011;18338;53.240;8.798;2022-11-15T04:10:34;37.60;;;23.20;;
31764;SDS011;18338;53.240;8.798;2022-11-15T04:13:01;41.95;;;25.20;;
31764;SDS011;18338;53.240;8.798;2022-11-15T04:15:28;37.25;;;23.63;;
31764;SDS011;18338;53.240;8.798;2022-11-15T04:17:56;38.42;;;22.42;;
31764;SDS011;18338;53.240;8.798;2022-11-15T04:20:24;36.42;;;23.08;;
31764;SDS011;18338;53.240;8.798;2022-11-15T04:23:18;35.63;;;22.23;;
31764;SDS011;18338;53.240;8.798;2022-11-15T04:26:06;39.53;;;22.92;;
31764;SDS011;18338;53.240;8.798;2022-11-15T04:28:38;32.78;;;20.75;;
31764;SDS011;18338;53.240;8.798;2022-11-15T04:31:24;36.50;;;21.98;;
31764;SDS011;18338;53.240;8.798;2022-11-15T04:33:51;36.20;;;22.10;;
31764;SDS011;18338;53.240;8.798;2022-11-15T04:36:19;34.33;;;21.38;;
31764;SDS011;18338;53.240;8.798;2022-11-15T04:39:04;33.42;;;22.20;;
31764;SDS011;18338;53.240;8.798;2022-11-15T04:41:31;35.67;;;21.83;;
31764;SDS011;18338;53.240;8.798;2022-11-15T04:43:58;33.70;;;21.00;;
31764;SDS011;18338;53.240;8.798;2022-11-15T04:46:25;35.42;;;21.67;;
31764;SDS011;18338;53.240;8.798;2022-11-15T04:48:52;36.78;;;21.17;;
31764;SDS011;18338;53.240;8.798;2022-11-15T04:51:24;33.25;;;20.75;;
31764;SDS011;18338;53.240;8.798;2022-11-15T04:53:50;31.27;;;20.42;;
31764;SDS011;18338;53.240;8.798;2022-11-15T04:56:17;31.45;;;20.60;;
31764;SDS011;18338;53.240;8.798;2022-11-15T04:58:44;34.55;;;20.63;;
31764;SDS011;18338;53.240;8.798;2022-11-15T05:01:12;28.98;;;20.55;;
31764;SDS011;18338;53.240;8.798;2022-11-15T05:03:41;30.70;;;20.23;;
31764;SDS011;18338;53.240;8.798;2022-11-15T05:06:27;33.20;;;20.25;;
31764;SDS011;18338;53.240;8.798;2022-11-15T05:08:54;28.80;;;20.08;;
31764;SDS011;18338;53.240;8.798;2022-11-15T05:11:21;28.55;;;19.17;;
31764;SDS011;18338;53.240;8.798;2022-11-15T05:13:48;25.48;;;18.52;;
31764;SDS011;18338;53.240;8.798;2022-11-15T05:16:15;28.10;;;18.58;;
31764;SDS011;18338;53.240;8.798;2022-11-15T05:18:42;29.60;;;18.13;;
31764;SDS011;18338;53.240;8.798;2022-11-15T05:21:10;25.10;;;17.60;;
31764;SDS011;18338;53.240;8.798;2022-11-15T05:23:42;26.25;;;18.40;;
31764;SDS011;18338;53.240;8.798;2022-11-15T05:26:09;28.80;;;18.15;;
31764;SDS011;18338;53.240;8.798;2022-11-15T05:28:37;27.02;;;18.80;;
31764;SDS011;18338;53.240;8.798;2022-11-15T05:31:14;25.83;;;17.38;;
31764;SDS011;18338;53.240;8.798;2022-11-15T05:33:42;24.73;;;17.40;;
31764;SDS011;18338;53.240;8.798;2022-11-15T05:38:49;25.15;;;17.10;;
31764;SDS011;18338;53.240;8.798;2022-11-15T05:41:17;24.92;;;17.70;;
31764;SDS011;18338;53.240;8.798;2022-11-15T05:43:47;22.33;;;16.30;;
31764;SDS011;18338;53.240;8.798;2022-11-15T05:46:16;23.27;;;17.15;;
31764;SDS011;18338;53.240;8.798;2022-11-15T05:48:45;23.85;;;17.08;;
31764;SDS011;18338;53.240;8.798;2022-11-15T05:51:15;22.40;;;16.02;;
31764;SDS011;18338;53.240;8.798;2022-11-15T05:53:45;23.38;;;15.90;;
31764;SDS011;18338;53.240;8.798;2022-11-15T05:56:12;22.55;;;17.00;;
31764;SDS011;18338;53.240;8.798;2022-11-15T05:58:40;22.83;;;15.90;;
31764;SDS011;18338;53.240;8.798;2022-11-15T06:01:07;22.63;;;16.23;;
31764;SDS011;18338;53.240;8.798;2022-11-15T06:03:34;23.40;;;16.35;;
31764;SDS011;18338;53.240;8.798;2022-11-15T06:06:01;22.02;;;16.20;;
31764;SDS011;18338;53.240;8.798;2022-11-15T06:08:28;21.35;;;15.48;;
31764;SDS011;18338;53.240;8.798;2022-11-15T06:10:54;19.55;;;14.57;;
31764;SDS011;18338;53.240;8.798;2022-11-15T06:13:23;20.50;;;15.52;;
31764;SDS011;18338;53.240;8.798;2022-11-15T06:15:50;20.27;;;15.07;;
31764;SDS011;18338;53.240;8.798;2022-11-15T06:18:17;20.80;;;14.75;;
31764;SDS011;18338;53.240;8.798;2022-11-15T06:20:44;20.42;;;14.88;;
31764;SDS011;18338;53.240;8.798;2022-11-15T06:23:11;19.55;;;15.57;;
31764;SDS011;18338;53.240;8.798;2022-11-15T06:25:37;21.05;;;14.63;;
31764;SDS011;18338;53.240;8.798;2022-11-15T06:28:04;21.10;;;14.98;;
31764;SDS011;18338;53.240;8.798;2022-11-15T06:30:31;18.05;;;15.30;;
31764;SDS011;18338;53.240;8.798;2022-11-15T06:32:59;18.58;;;14.27;;
31764;SDS011;18338;53.240;8.798;2022-11-15T06:35:29;19.30;;;14.25;;
31764;SDS011;18338;53.240;8.798;2022-11-15T06:38:01;19.55;;;14.48;;
31764;SDS011;18338;53.240;8.798;2022-11-15T06:40:33;18.33;;;14.15;;
31764;SDS011;18338;53.240;8.798;2022-11-15T06:43:01;20.40;;;15.35;;
31764;SDS011;18338;53.240;8.798;2022-11-15T06:45:28;19.63;;;15.00;;
31764;SDS011;18338;53.240;8.798;2022-11-15T06:47:57;22.23;;;16.05;;
31764;SDS011;18338;53.240;8.798;2022-11-15T06:50:24;20.05;;;15.35;;
31764;SDS011;18338;53.240;8.798;2022-11-15T06:52:51;19.60;;;15.02;;
31764;SDS011;18338;53.240;8.798;2022-11-15T06:55:18;18.17;;;14.13;;
31764;SDS011;18338;53.240;8.798;2022-11-15T06:57:49;19.55;;;14.98;;
31764;SDS011;18338;53.240;8.798;2022-11-15T07:00:18;19.48;;;15.65;;
31764;SDS011;18338;53.240;8.798;2022-11-15T07:02:47;21.95;;;14.93;;
31764;SDS011;18338;53.240;8.798;2022-11-15T07:05:15;20.08;;;14.88;;
31764;SDS011;18338;53.240;8.798;2022-11-15T07:07:42;19.30;;;14.25;;
31764;SDS011;18338;53.240;8.798;2022-11-15T07:10:09;20.65;;;15.52;;
31764;SDS011;18338;53.240;8.798;2022-11-15T07:12:36;17.25;;;14.27;;
31764;SDS011;18338;53.240;8.798;2022-11-15T07:15:02;18.02;;;14.75;;
31764;SDS011;18338;53.240;8.798;2022-11-15T07:17:29;20.70;;;14.38;;
31764;SDS011;18338;53.240;8.798;2022-11-15T07:19:56;19.02;;;14.82;;
31764;SDS011;18338;53.240;8.798;2022-11-15T07:22:22;20.27;;;14.90;;
31764;SDS011;18338;53.240;8.798;2022-11-15T07:24:49;18.63;;;14.75;;
31764;SDS011;18338;53.240;8.798;2022-11-15T07:27:16;18.55;;;13.68;;
31764;SDS011;18338;53.240;8.798;2022-11-15T07:29:45;18.23;;;14.80;;
31764;SDS011;18338;53.240;8.798;2022-11-15T07:32:12;17.75;;;13.38;;
31764;SDS011;18338;53.240;8.798;2022-11-15T07:34:39;16.83;;;14.43;;
31764;SDS011;18338;53.240;8.798;2022-11-15T07:37:05;19.38;;;15.02;;
31764;SDS011;18338;53.240;8.798;2022-11-15T07:39:32;18.17;;;14.00;;
31764;SDS011;18338;53.240;8.798;2022-11-15T07:41:59;21.27;;;14.88;;
31764;SDS011;18338;53.240;8.798;2022-11-15T07:44:44;19.67;;;14.32;;
31764;SDS011;18338;53.240;8.798;2022-11-15T07:47:13;18.02;;;13.52;;
31764;SDS011;18338;53.240;8.798;2022-11-15T07:49:40;15.43;;;12.85;;
31764;SDS011;18338;53.240;8.798;2022-11-15T07:52:06;16.92;;;13.48;;
31764;SDS011;18338;53.240;8.798;2022-11-15T07:54:33;16.08;;;12.93;;
31764;SDS011;18338;53.240;8.798;2022-11-15T07:57:00;15.32;;;11.65;;
31764;SDS011;18338;53.240;8.798;2022-11-15T07:59:32;15.07;;;11.98;;
31764;SDS011;18338;53.240;8.798;2022-11-15T08:02:00;15.40;;;11.43;;
31764;SDS011;18338;53.240;8.798;2022-11-15T08:04:28;14.70;;;10.27;;
31764;SDS011;18338;53.240;8.798;2022-11-15T08:06:55;13.77;;;10.95;;
31764;SDS011;18338;53.240;8.798;2022-11-15T08:09:25;12.05;;;9.93;;
31764;SDS011;18338;53.240;8.798;2022-11-15T08:11:52;12.63;;;10.00;;
31764;SDS011;18338;53.240;8.798;2022-11-15T08:14:18;13.05;;;9.48;;
31764;SDS011;18338;53.240;8.798;2022-11-15T08:16:47;13.40;;;9.70;;
31764;SDS011;18338;53.240;8.798;2022-11-15T08:19:14;12.70;;;9.75;;
31764;SDS011;18338;53.240;8.798;2022-11-15T08:21:41;10.77;;;9.50;;
31764;SDS011;18338;53.240;8.798;2022-11-15T08:24:09;10.57;;;9.48;;
31764;SDS011;18338;53.240;8.798;2022-11-15T08:26:36;10.30;;;9.30;;
31764;SDS011;18338;53.240;8.798;2022-11-15T08:29:05;12.80;;;8.95;;
31764;SDS011;18338;53.240;8.798;2022-11-15T08:31:35;12.77;;;9.55;;
31764;SDS011;18338;53.240;8.798;2022-11-15T08:34:05;10.13;;;9.05;;
31764;SDS011;18338;53.240;8.798;2022-11-15T08:36:32;10.35;;;9.25;;
31764;SDS011;18338;53.240;8.798;2022-11-15T08:39:10;10.52;;;9.43;;
31764;SDS011;18338;53.240;8.798;2022-11-15T08:41:40;10.93;;;8.77;;
31764;SDS011;18338;53.240;8.798;2022-11-15T08:44:07;12.57;;;9.15;;
31764;SDS011;18338;53.240;8.798;2022-11-15T08:46:33;11.15;;;9.43;;
31764;SDS011;18338;53.240;8.798;2022-11-15T08:49:00;9.80;;;8.90;;
31764;SDS011;18338;53.240;8.798;2022-11-15T08:51:26;13.00;;;9.15;;
31764;SDS011;18338;53.240;8.798;2022-11-15T08:53:53;10.43;;;8.85;;
31764;SDS011;18338;53.240;8.798;2022-11-15T08:56:20;11.93;;;8.80;;
31764;SDS011;18338;53.240;8.798;2022-11-15T08:58:46;10.00;;;9.00;;
31764;SDS011;18338;53.240;8.798;2022-11-15T09:01:14;9.38;;;8.45;;
31764;SDS011;18338;53.240;8.798;2022-11-15T09:03:44;9.88;;;8.93;;
31764;SDS011;18338;53.240;8.798;2022-11-15T09:06:10;9.98;;;8.95;;
31764;SDS011;18338;53.240;8.798;2022-11-15T09:08:38;11.60;;;9.82;;
31764;SDS011;18338;53.240;8.798;2022-11-15T09:11:12;9.85;;;8.63;;
31764;SDS011;18338;53.240;8.798;2022-11-15T09:13:40;11.93;;;9.40;;
31764;SDS011;18338;53.240;8.798;2022-11-15T09:16:07;11.73;;;9.57;;
31764;SDS011;18338;53.240;8.798;2022-11-15T09:18:34;10.10;;;9.00;;
31764;SDS011;18338;53.240;8.798;2022-11-15T09:21:01;10.35;;;9.27;;
31764;SDS011;18338;53.240;8.798;2022-11-15T09:23:28;12.30;;;9.55;;
31764;SDS011;18338;53.240;8.798;2022-11-15T09:25:59;10.32;;;9.23;;
31764;SDS011;18338;53.240;8.798;2022-11-15T09:28:28;10.50;;;9.40;;
31764;SDS011;18338;53.240;8.798;2022-11-15T09:30:57;10.43;;;8.32;;
31764;SDS011;18338;53.240;8.798;2022-11-15T09:33:25;11.88;;;8.82;;
31764;SDS011;18338;53.240;8.798;2022-11-15T09:35:53;9.30;;;8.25;;
31764;SDS011;18338;53.240;8.798;2022-11-15T09:38:25;9.85;;;8.10;;
31764;SDS011;18338;53.240;8.798;2022-11-15T09:40:57;8.55;;;7.70;;
31764;SDS011;18338;53.240;8.798;2022-11-15T09:49:13;8.57;;;7.75;;
31764;SDS011;18338;53.240;8.798;2022-11-15T09:51:45;10.73;;;8.13;;
31764;SDS011;18338;53.240;8.798;2022-11-15T09:54:35;9.38;;;7.18;;
31764;SDS011;18338;53.240;8.798;2022-11-15T09:57:41;8.55;;;7.35;;
31764;SDS011;18338;53.240;8.798;2022-11-15T10:00:35;8.68;;;7.22;;
31764;SDS011;18338;53.240;8.798;2022-11-15T10:03:18;10.02;;;7.30;;
31764;SDS011;18338;53.240;8.798;2022-11-15T10:05:53;9.02;;;7.25;;
31764;SDS011;18338;53.240;8.798;2022-11-15T10:11:27;8.32;;;7.38;;
31764;SDS011;18338;53.240;8.798;2022-11-15T10:14:13;7.60;;;6.88;;
31764;SDS011;18338;53.240;8.798;2022-11-15T10:16:56;7.53;;;6.53;;
31764;SDS011;18338;53.240;8.798;2022-11-15T10:22:22;6.93;;;5.50;;
31764;SDS011;18338;53.240;8.798;2022-11-15T10:27:55;6.90;;;6.03;;
31764;SDS011;18338;53.240;8.798;2022-11-15T10:30:31;7.25;;;6.50;;
31764;SDS011;18338;53.240;8.798;2022-11-15T10:33:09;6.10;;;5.43;;
31764;SDS011;18338;53.240;8.798;2022-11-15T10:35:40;8.02;;;6.55;;
31764;SDS011;18338;53.240;8.798;2022-11-15T10:38:09;6.40;;;5.80;;
31764;SDS011;18338;53.240;8.798;2022-11-15T10:40:37;6.95;;;5.60;;
31764;SDS011;18338;53.240;8.798;2022-11-15T10:43:18;8.40;;;5.32;;
31764;SDS011;18338;53.240;8.798;2022-11-15T10:45:45;5.65;;;5.15;;
31764;SDS011;18338;53.240;8.798;2022-11-15T10:50:47;9.45;;;8.02;;
31764;SDS011;18338;53.240;8.798;2022-11-15T10:53:32;6.15;;;5.50;;
31764;SDS011;18338;53.240;8.798;2022-11-15T10:56:12;8.48;;;7.68;;
31764;SDS011;18338;53.240;8.798;2022-11-15T10:58:50;7.35;;;5.25;;
31764;SDS011;18338;53.240;8.798;2022-11-15T11:01:22;5.57;;;5.07;;
31764;SDS011;18338;53.240;8.798;2022-11-15T11:04:00;8.93;;;8.02;;
31764;SDS011;18338;53.240;8.798;2022-11-15T11:06:52;5.85;;;5.20;;
31764;SDS011;18338;53.240;8.798;2022-11-15T11:09:31;4.68;;;4.22;;
31764;SDS011;18338;53.240;8.798;2022-11-15T11:12:03;10.25;;;8.18;;
31764;SDS011;18338;53.240;8.798;2022-11-15T11:14:37;7.43;;;6.35;;
31764;SDS011;18338;53.240;8.798;2022-11-15T11:25:27;9.90;;;8.68;;
31764;SDS011;18338;53.240;8.798;2022-11-15T11:33:37;4.22;;;3.83;;
31764;SDS011;18338;53.240;8.798;2022-11-15T11:47:23;4.57;;;3.40;;
31764;SDS011;18338;53.240;8.798;2022-11-15T11:50:05;3.45;;;3.15;;
31764;SDS011;18338;53.240;8.798;2022-11-15T11:55:45;3.40;;;3.10;;
31764;SDS011;18338;53.240;8.798;2022-11-15T11:58:41;4.78;;;3.53;;
31764;SDS011;18338;53.240;8.798;2022-11-15T12:01:12;3.90;;;2.80;;
31764;SDS011;18338;53.240;8.798;2022-11-15T12:03:54;3.13;;;2.78;;
31764;SDS011;18338;53.240;8.798;2022-11-15T12:15:13;2.95;;;2.67;;
31764;SDS011;18338;53.240;8.798;2022-11-15T12:17:49;3.83;;;3.38;;
31764;SDS011;18338;53.240;8.798;2022-11-15T12:20:21;3.05;;;2.85;;
31764;SDS011;18338;53.240;8.798;2022-11-15T12:25:57;3.40;;;3.10;;
31764;SDS011;18338;53.240;8.798;2022-11-15T12:28:31;3.50;;;3.20;;
31764;SDS011;18338;53.240;8.798;2022-11-15T12:31:40;4.13;;;3.30;;
31764;SDS011;18338;53.240;8.798;2022-11-15T12:36:47;4.65;;;3.30;;
31764;SDS011;18338;53.240;8.798;2022-11-15T12:39:16;3.05;;;2.70;;
31764;SDS011;18338;53.240;8.798;2022-11-15T12:41:44;3.50;;;3.20;;
31764;SDS011;18338;53.240;8.798;2022-11-15T12:47:23;2.95;;;2.63;;
31764;SDS011;18338;53.240;8.798;2022-11-15T12:49:52;2.90;;;2.60;;
31764;SDS011;18338;53.240;8.798;2022-11-15T12:52:19;3.25;;;2.95;;
31764;SDS011;18338;53.240;8.798;2022-11-15T12:54:50;3.00;;;2.80;;
31764;SDS011;18338;53.240;8.798;2022-11-15T13:03:12;6.32;;;4.13;;
31764;SDS011;18338;53.240;8.798;2022-11-15T13:08:22;4.38;;;3.50;;
31764;SDS011;18338;53.240;8.798;2022-11-15T13:19:57;3.45;;;3.15;;
31764;SDS011;18338;53.240;8.798;2022-11-15T13:22:40;4.68;;;3.22;;
31764;SDS011;18338;53.240;8.798;2022-11-15T13:25:35;4.38;;;3.35;;
31764;SDS011;18338;53.240;8.798;2022-11-15T13:28:35;5.00;;;3.40;;
31764;SDS011;18338;53.240;8.798;2022-11-15T13:33:55;3.55;;;2.83;;
31764;SDS011;18338;53.240;8.798;2022-11-15T13:36:26;3.97;;;3.33;;
31764;SDS011;18338;53.240;8.798;2022-11-15T13:39:03;3.60;;;2.95;;
31764;SDS011;18338;53.240;8.798;2022-11-15T13:41:44;4.47;;;3.20;;
31764;SDS011;18338;53.240;8.798;2022-11-15T13:47:12;4.22;;;2.72;;
31764;SDS011;18338;53.240;8.798;2022-11-15T13:49:40;3.53;;;2.67;;
31764;SDS011;18338;53.240;8.798;2022-11-15T13:52:10;3.65;;;2.78;;
31764;SDS011;18338;53.240;8.798;2022-11-15T13:54:47;3.03;;;2.58;;
31764;SDS011;18338;53.240;8.798;2022-11-15T13:57:24;4.18;;;2.65;;
31764;SDS011;18338;53.240;8.798;2022-11-15T13:59:56;3.55;;;2.70;;
31764;SDS011;18338;53.240;8.798;2022-11-15T14:02:27;3.15;;;2.53;;
31764;SDS011;18338;53.240;8.798;2022-11-15T14:07:55;3.17;;;2.47;;
31764;SDS011;18338;53.240;8.798;2022-11-15T14:10:31;4.70;;;2.30;;
31764;SDS011;18338;53.240;8.798;2022-11-15T14:13:00;3.60;;;2.00;;
31764;SDS011;18338;53.240;8.798;2022-11-15T14:15:30;1.92;;;1.73;;
31764;SDS011;18338;53.240;8.798;2022-11-15T14:18:03;2.08;;;1.48;;
31764;SDS011;18338;53.240;8.798;2022-11-15T14:20:32;1.88;;;1.73;;
31764;SDS011;18338;53.240;8.798;2022-11-15T14:23:05;2.03;;;1.92;;
31764;SDS011;18338;53.240;8.798;2022-11-15T14:25:56;4.30;;;3.65;;
31764;SDS011;18338;53.240;8.798;2022-11-15T14:30:52;3.08;;;2.78;;
31764;SDS011;18338;53.240;8.798;2022-11-15T14:36:19;4.25;;;2.92;;
31764;SDS011;18338;53.240;8.798;2022-11-15T14:38:47;3.28;;;2.92;;
31764;SDS011;18338;53.240;8.798;2022-11-15T14:41:18;3.58;;;2.90;;
31764;SDS011;18338;53.240;8.798;2022-11-15T14:43:52;4.45;;;2.60;;
31764;SDS011;18338;53.240;8.798;2022-11-15T14:46:20;2.42;;;2.22;;
31764;SDS011;18338;53.240;8.798;2022-11-15T14:48:47;3.03;;;2.65;;
31764;SDS011;18338;53.240;8.798;2022-11-15T14:51:14;3.78;;;2.70;;
31764;SDS011;18338;53.240;8.798;2022-11-15T14:53:43;6.82;;;3.08;;
31764;SDS011;18338;53.240;8.798;2022-11-15T14:56:11;3.75;;;3.17;;
31764;SDS011;18338;53.240;8.798;2022-11-15T14:58:39;5.18;;;3.90;;
31764;SDS011;18338;53.240;8.798;2022-11-15T15:01:25;4.68;;;4.18;;
31764;SDS011;18338;53.240;8.798;2022-11-15T15:04:02;5.15;;;4.20;;
31764;SDS011;18338;53.240;8.798;2022-11-15T15:07:00;4.28;;;3.42;;
31764;SDS011;18338;53.240;8.798;2022-11-15T15:09:27;4.43;;;3.33;;
31764;SDS011;18338;53.240;8.798;2022-11-15T15:11:53;3.88;;;3.30;;
31764;SDS011;18338;53.240;8.798;2022-11-15T15:14:20;3.78;;;3.30;;
31764;SDS011;18338;53.240;8.798;2022-11-15T15:16:47;4.93;;;2.95;;
31764;SDS011;18338;53.240;8.798;2022-11-15T15:19:14;2.85;;;2.53;;
31764;SDS011;18338;53.240;8.798;2022-11-15T15:21:40;3.38;;;2.92;;
31764;SDS011;18338;53.240;8.798;2022-11-15T15:24:08;3.35;;;2.60;;
31764;SDS011;18338;53.240;8.798;2022-11-15T15:26:40;3.63;;;3.00;;
31764;SDS011;18338;53.240;8.798;2022-11-15T15:29:09;3.15;;;2.85;;
31764;SDS011;18338;53.240;8.798;2022-11-15T15:31:36;4.13;;;2.33;;
31764;SDS011;18338;53.240;8.798;2022-11-15T15:34:02;3.75;;;2.30;;
31764;SDS011;18338;53.240;8.798;2022-11-15T15:36:30;2.75;;;2.40;;
31764;SDS011;18338;53.240;8.798;2022-11-15T15:38:57;3.22;;;2.75;;
31764;SDS011;18338;53.240;8.798;2022-11-15T15:41:24;4.45;;;2.90;;
31764;SDS011;18338;53.240;8.798;2022-11-15T15:43:50;4.95;;;3.42;;
31764;SDS011;18338;53.240;8.798;2022-11-15T15:46:18;4.28;;;3.05;;
31764;SDS011;18338;53.240;8.798;2022-11-15T15:48:45;3.95;;;3.00;;
31764;SDS011;18338;53.240;8.798;2022-11-15T15:51:12;3.88;;;3.03;;
31764;SDS011;18338;53.240;8.798;2022-11-15T15:53:46;4.30;;;3.38;;
31764;SDS011;18338;53.240;8.798;2022-11-15T15:56:13;3.83;;;3.47;;
31764;SDS011;18338;53.240;8.798;2022-11-15T15:58:40;4.50;;;3.60;;
31764;SDS011;18338;53.240;8.798;2022-11-15T16:01:06;6.40;;;3.90;;
31764;SDS011;18338;53.240;8.798;2022-11-15T16:03:33;5.82;;;3.42;;
31764;SDS011;18338;53.240;8.798;2022-11-15T16:06:00;6.63;;;4.05;;
31764;SDS011;18338;53.240;8.798;2022-11-15T16:08:30;5.05;;;4.50;;
31764;SDS011;18338;53.240;8.798;2022-11-15T16:11:17;4.40;;;4.00;;
31764;SDS011;18338;53.240;8.798;2022-11-15T16:13:44;6.13;;;4.45;;
31764;SDS011;18338;53.240;8.798;2022-11-15T16:16:12;4.88;;;4.38;;
31764;SDS011;18338;53.240;8.798;2022-11-15T16:18:39;5.78;;;4.50;;
31764;SDS011;18338;53.240;8.798;2022-11-15T16:21:07;5.63;;;4.32;;
31764;SDS011;18338;53.240;8.798;2022-11-15T16:23:34;5.43;;;4.80;;
31764;SDS011;18338;53.240;8.798;2022-11-15T16:26:01;5.43;;;4.60;;
31764;SDS011;18338;53.240;8.798;2022-11-15T16:28:30;6.97;;;5.10;;
31764;SDS011;18338;53.240;8.798;2022-11-15T16:31:07;7.30;;;5.57;;
31764;SDS011;18338;53.240;8.798;2022-11-15T16:33:36;7.32;;;5.40;;
31764;SDS011;18338;53.240;8.798;2022-11-15T16:36:04;6.90;;;5.40;;
31764;SDS011;18338;53.240;8.798;2022-11-15T16:38:32;5.93;;;5.18;;
31764;SDS011;18338;53.240;8.798;2022-11-15T16:40:59;5.57;;;5.07;;
31764;SDS011;18338;53.240;8.798;2022-11-15T16:43:26;6.10;;;5.32;;
31764;SDS011;18338;53.240;8.798;2022-11-15T16:45:53;6.22;;;4.97;;
31764;SDS011;18338;53.240;8.798;2022-11-15T16:48:24;6.72;;;6.03;;
31764;SDS011;18338;53.240;8.798;2022-11-15T16:50:56;8.70;;;7.45;;
31764;SDS011;18338;53.240;8.798;2022-11-15T16:53:24;8.38;;;7.22;;
31764;SDS011;18338;53.240;8.798;2022-11-15T16:55:55;8.95;;;8.05;;
31764;SDS011;18338;53.240;8.798;2022-11-15T16:58:22;8.73;;;7.68;;
31764;SDS011;18338;53.240;8.798;2022-11-15T17:00:50;8.30;;;6.78;;
31764;SDS011;18338;53.240;8.798;2022-11-15T17:03:18;9.57;;;7.13;;